createdAt,value
2019-02-20T00:00:49.416Z,4.50
2019-02-20T00:01:49.434Z,4.60
2019-02-20T00:02:49.448Z,4.60
2019-02-20T00:03:49.442Z,4.40
2019-02-20T00:04:49.458Z,4.60
2019-02-20T00:05:49.468Z,5.70
2019-02-20T00:06:49.474Z,4.40
2019-02-20T00:07:49.489Z,5.10
2019-02-20T00:08:49.500Z,5.20
2019-02-20T00:09:49.506Z,5.10
2019-02-20T00:10:49.522Z,4.40
2019-02-20T00:11:49.550Z,4.50
2019-02-20T00:12:49.555Z,5.20
2019-02-20T00:13:49.552Z,4.60
2019-02-20T00:14:49.562Z,4.60
2019-02-20T00:15:49.574Z,4.60
2019-02-20T00:16:49.580Z,3.90
2019-02-20T00:17:49.603Z,4.60
2019-02-20T00:18:49.608Z,5.10
2019-02-20T00:19:49.616Z,4.50
2019-02-20T00:20:49.632Z,5.00
2019-02-20T00:21:49.635Z,4.40
2019-02-20T00:22:49.657Z,3.90
2019-02-20T00:23:49.660Z,4.50
2019-02-20T00:24:49.676Z,4.20
2019-02-20T00:25:49.681Z,4.40
2019-02-20T00:26:49.789Z,4.40
2019-02-20T00:27:49.707Z,4.00
2019-02-20T00:28:49.791Z,4.50
2019-02-20T00:29:49.727Z,4.60
2019-02-20T00:30:49.738Z,4.60
2019-02-20T00:31:49.743Z,4.40
2019-02-20T00:32:49.759Z,4.20
2019-02-20T00:33:49.776Z,4.40
2019-02-20T00:34:49.793Z,4.60
2019-02-20T00:35:49.855Z,4.30
2019-02-20T00:36:49.796Z,4.90
2019-02-20T00:37:49.832Z,4.80
2019-02-20T00:38:49.823Z,4.50
2019-02-20T00:39:49.831Z,4.50
2019-02-20T00:40:49.842Z,4.40
2019-02-20T00:41:49.854Z,4.50
2019-02-20T00:42:49.872Z,4.60
2019-02-20T00:43:49.878Z,4.50
2019-02-20T00:44:49.893Z,4.30
2019-02-20T00:45:49.901Z,5.00
2019-02-20T00:46:49.907Z,5.20
2019-02-20T00:47:49.927Z,5.30
2019-02-20T00:48:49.929Z,4.30
2019-02-20T00:49:49.939Z,4.70
2019-02-20T00:50:49.956Z,4.30
2019-02-20T00:51:49.962Z,4.70
2019-02-20T00:52:50.493Z,4.10
2019-02-20T00:53:49.981Z,5.40
2019-02-20T00:54:49.999Z,4.90
2019-02-20T00:55:50.003Z,5.00
2019-02-20T00:56:50.020Z,5.00
2019-02-20T00:57:50.025Z,5.10
2019-02-20T00:58:50.035Z,4.90
2019-02-20T00:59:50.055Z,5.10
2019-02-20T01:00:50.066Z,4.70
2019-02-20T01:01:50.066Z,4.60
2019-02-20T01:02:50.081Z,5.00
2019-02-20T01:03:50.090Z,4.80
2019-02-20T01:04:50.100Z,4.80
2019-02-20T01:05:50.115Z,4.80
2019-02-20T01:06:50.122Z,4.60
2019-02-20T01:07:50.146Z,4.80
2019-02-20T01:08:50.146Z,4.40
2019-02-20T01:09:50.153Z,5.70
2019-02-20T01:10:50.171Z,5.30
2019-02-20T01:11:50.175Z,4.70
2019-02-20T01:12:50.197Z,4.70
2019-02-20T01:13:50.205Z,4.40
2019-02-20T01:14:50.232Z,4.60
2019-02-20T01:15:50.219Z,4.70
2019-02-20T01:16:50.231Z,4.70
2019-02-20T01:17:50.246Z,5.00
2019-02-20T01:18:50.259Z,5.00
2019-02-20T01:19:50.261Z,5.00
2019-02-20T01:20:50.270Z,5.20
2019-02-20T01:21:50.280Z,5.00
2019-02-20T01:22:59.459Z,4.70
2019-02-20T01:23:50.304Z,4.70
2019-02-20T01:24:50.319Z,5.00
2019-02-20T01:25:50.338Z,4.70
2019-02-20T01:26:50.346Z,5.20
2019-02-20T01:27:50.362Z,4.80
2019-02-20T01:28:50.365Z,4.10
2019-02-20T01:29:50.370Z,5.10
2019-02-20T01:30:50.469Z,4.60
2019-02-20T01:31:50.429Z,5.20
2019-02-20T01:32:50.406Z,5.40
2019-02-20T01:33:50.412Z,4.90
2019-02-20T01:34:50.424Z,4.70
2019-02-20T01:35:50.432Z,4.80
2019-02-20T01:36:50.441Z,5.20
2019-02-20T01:37:50.455Z,5.50
2019-02-20T01:38:50.482Z,5.60
2019-02-20T01:39:50.481Z,5.20
2019-02-20T01:40:50.489Z,4.60
2019-02-20T01:41:50.504Z,5.10
2019-02-20T01:42:50.512Z,5.00
2019-02-20T01:43:50.521Z,4.80
2019-02-20T01:44:50.535Z,5.10
2019-02-20T01:45:50.549Z,5.30
2019-02-20T01:46:50.563Z,5.40
2019-02-20T01:47:50.874Z,4.90
2019-02-20T01:48:50.584Z,5.50
2019-02-20T01:49:50.589Z,5.10
2019-02-20T01:50:50.611Z,5.30
2019-02-20T01:51:50.606Z,5.20
2019-02-20T01:52:50.617Z,5.30
2019-02-20T01:53:50.632Z,5.10
2019-02-20T01:54:50.645Z,5.10
2019-02-20T01:55:50.653Z,5.20
2019-02-20T01:56:50.677Z,5.40
2019-02-20T01:57:50.674Z,5.30
2019-02-20T01:58:50.685Z,5.10
2019-02-20T01:59:50.695Z,5.60
2019-02-20T02:00:50.705Z,5.20
2019-02-20T02:01:50.722Z,5.60
2019-02-20T02:02:50.737Z,5.80
2019-02-20T02:03:50.744Z,5.10
2019-02-20T02:04:50.762Z,5.50
2019-02-20T02:05:50.769Z,5.70
2019-02-20T02:06:50.780Z,5.50
2019-02-20T02:07:50.785Z,5.10
2019-02-20T02:08:50.799Z,6.00
2019-02-20T02:09:50.806Z,6.00
2019-02-20T02:10:50.846Z,5.70
2019-02-20T02:11:50.837Z,5.60
2019-02-20T02:12:50.845Z,5.80
2019-02-20T02:13:50.886Z,5.70
2019-02-20T02:14:50.866Z,5.70
2019-02-20T02:15:50.882Z,5.70
2019-02-20T02:16:50.882Z,5.90
2019-02-20T02:17:50.903Z,6.50
2019-02-20T02:18:50.915Z,6.10
2019-02-20T02:19:50.916Z,6.30
2019-02-20T02:20:51.032Z,6.70
2019-02-20T02:21:50.941Z,5.60
2019-02-20T02:22:50.949Z,6.30
2019-02-20T02:23:50.960Z,6.40
2019-02-20T02:24:50.969Z,6.80
2019-02-20T02:25:50.997Z,6.60
2019-02-20T02:26:51.003Z,6.90
2019-02-20T02:27:51.003Z,6.80
2019-02-20T02:28:51.041Z,6.80
2019-02-20T02:29:51.025Z,7.30
2019-02-20T02:30:51.041Z,7.00
2019-02-20T02:31:51.083Z,6.70
2019-02-20T02:32:51.065Z,7.20
2019-02-20T02:33:51.079Z,6.80
2019-02-20T02:34:51.098Z,6.70
2019-02-20T02:35:51.099Z,6.70
2019-02-20T02:36:51.103Z,7.00
2019-02-20T02:37:51.115Z,7.50
2019-02-20T02:38:51.133Z,7.60
2019-02-20T02:39:51.134Z,7.30
2019-02-20T02:40:51.147Z,7.20
2019-02-20T02:41:51.156Z,7.20
2019-02-20T02:42:51.198Z,7.30
2019-02-20T02:43:51.189Z,7.80
2019-02-20T02:44:51.204Z,7.60
2019-02-20T02:45:51.209Z,7.40
2019-02-20T02:46:51.214Z,7.50
2019-02-20T02:47:51.230Z,7.70
2019-02-20T02:48:51.275Z,7.80
2019-02-20T02:49:51.263Z,7.80
2019-02-20T02:50:51.291Z,7.70
2019-02-20T02:51:51.282Z,7.60
2019-02-20T02:52:51.280Z,7.30
2019-02-20T02:53:51.288Z,7.30
2019-02-20T02:54:51.300Z,7.90
2019-02-20T02:55:51.315Z,7.90
2019-02-20T02:56:51.332Z,7.90
2019-02-20T02:57:51.342Z,8.00
2019-02-20T02:58:51.352Z,8.20
2019-02-20T02:59:51.357Z,8.40
2019-02-20T03:00:51.451Z,8.30
2019-02-20T03:01:51.381Z,8.20
2019-02-20T03:02:51.390Z,8.20
2019-02-20T03:03:51.448Z,8.50
2019-02-20T03:04:51.419Z,8.40
2019-02-20T03:05:51.425Z,8.40
2019-02-20T03:06:51.438Z,8.20
2019-02-20T03:07:51.449Z,8.90
2019-02-20T03:08:51.461Z,8.90
2019-02-20T03:09:51.502Z,8.60
2019-02-20T03:10:51.507Z,8.40
2019-02-20T03:11:51.491Z,8.40
2019-02-20T03:12:51.498Z,8.60
2019-02-20T03:13:51.508Z,8.40
2019-02-20T03:14:51.520Z,8.80
2019-02-20T03:15:51.540Z,8.70
2019-02-20T03:16:51.540Z,8.70
2019-02-20T03:17:51.569Z,9.20
2019-02-20T03:18:51.608Z,9.50
2019-02-20T03:19:51.580Z,9.00
2019-02-20T03:20:51.589Z,9.60
2019-02-20T03:21:51.635Z,9.10
2019-02-20T03:22:51.658Z,9.20
2019-02-20T03:23:51.625Z,9.30
2019-02-20T03:24:51.629Z,9.30
2019-02-20T03:25:51.649Z,9.50
2019-02-20T03:26:51.654Z,9.60
2019-02-20T03:27:51.666Z,9.20
2019-02-20T03:28:51.684Z,9.30
2019-02-20T03:29:51.694Z,9.80
2019-02-20T03:30:51.700Z,9.40
2019-02-20T03:31:51.706Z,9.50
2019-02-20T03:32:51.721Z,9.80
2019-02-20T03:33:51.728Z,9.70
2019-02-20T03:34:51.781Z,10.10
2019-02-20T03:35:51.778Z,10.00
2019-02-20T03:36:51.773Z,9.10
2019-02-20T03:37:51.777Z,9.80
2019-02-20T03:38:51.787Z,9.20
2019-02-20T03:39:51.801Z,10.50
2019-02-20T03:40:51.817Z,9.50
2019-02-20T03:41:51.823Z,9.70
2019-02-20T03:42:51.855Z,10.20
2019-02-20T03:43:51.855Z,9.70
2019-02-20T03:44:51.849Z,10.00
2019-02-20T03:45:51.866Z,9.50
2019-02-20T03:46:51.873Z,10.20
2019-02-20T03:47:51.892Z,10.00
2019-02-20T03:48:51.909Z,10.20
2019-02-20T03:49:51.913Z,11.30
2019-02-20T03:50:51.925Z,10.10
2019-02-20T03:51:51.940Z,10.30
2019-02-20T03:52:51.944Z,9.90
2019-02-20T03:53:52.474Z,10.10
2019-02-20T03:54:51.979Z,10.30
2019-02-20T03:55:51.982Z,10.10
2019-02-20T03:56:51.993Z,9.90
2019-02-20T03:57:51.998Z,9.80
2019-02-20T03:58:52.007Z,9.70
2019-02-20T03:59:52.026Z,10.30
2019-02-20T04:00:52.032Z,9.50
2019-02-20T04:01:52.049Z,10.60
2019-02-20T04:02:52.051Z,10.50
2019-02-20T04:03:52.069Z,9.50
2019-02-20T04:04:52.070Z,10.10
2019-02-20T04:05:52.083Z,10.70
2019-02-20T04:06:52.242Z,10.60
2019-02-20T04:07:52.152Z,9.50
2019-02-20T04:08:52.111Z,9.70
2019-02-20T04:09:52.126Z,10.70
2019-02-20T04:10:52.133Z,9.90
2019-02-20T04:11:52.158Z,9.40
2019-02-20T04:12:52.155Z,9.90
2019-02-20T04:13:52.173Z,10.10
2019-02-20T04:14:52.173Z,10.60
2019-02-20T04:15:52.184Z,9.70
2019-02-20T04:16:52.196Z,9.80
2019-02-20T04:17:52.210Z,10.10
2019-02-20T04:18:52.221Z,10.20
2019-02-20T04:19:52.236Z,9.90
2019-02-20T04:20:52.241Z,10.40
2019-02-20T04:21:52.258Z,10.80
2019-02-20T04:22:52.269Z,10.20
2019-02-20T04:24:01.579Z,10.00
2019-02-20T04:24:52.287Z,9.50
2019-02-20T04:25:52.303Z,9.70
2019-02-20T04:26:52.317Z,9.80
2019-02-20T04:27:52.318Z,9.90
2019-02-20T04:28:52.335Z,9.90
2019-02-20T04:29:52.344Z,9.60
2019-02-20T04:30:52.355Z,9.20
2019-02-20T04:31:52.367Z,10.00
2019-02-20T04:32:52.374Z,9.60
2019-02-20T04:33:52.393Z,9.40
2019-02-20T04:34:52.397Z,9.90
2019-02-20T04:35:52.412Z,9.70
2019-02-20T04:36:52.437Z,9.70
2019-02-20T04:37:52.429Z,9.20
2019-02-20T04:38:52.443Z,9.10
2019-02-20T04:39:52.458Z,9.40
2019-02-20T04:40:52.461Z,9.60
2019-02-20T04:41:52.476Z,9.80
2019-02-20T04:42:52.486Z,8.90
2019-02-20T04:43:52.500Z,10.10
2019-02-20T04:44:52.514Z,9.40
2019-02-20T04:45:52.685Z,9.20
2019-02-20T04:46:52.533Z,9.20
2019-02-20T04:47:52.550Z,8.70
2019-02-20T04:48:52.556Z,9.80
2019-02-20T04:49:52.571Z,9.20
2019-02-20T04:50:52.635Z,9.20
2019-02-20T04:51:52.595Z,9.00
2019-02-20T04:52:52.598Z,9.30
2019-02-20T04:53:52.608Z,9.10
2019-02-20T04:54:52.624Z,9.00
2019-02-20T04:55:52.631Z,9.30
2019-02-20T04:56:52.637Z,8.80
2019-02-20T04:57:52.665Z,9.70
2019-02-20T04:58:52.666Z,9.40
2019-02-20T04:59:52.678Z,8.60
2019-02-20T05:00:52.691Z,8.60
2019-02-20T05:01:52.697Z,9.50
2019-02-20T05:02:52.705Z,9.10
2019-02-20T05:03:52.725Z,9.00
2019-02-20T05:04:52.727Z,9.60
2019-02-20T05:05:52.741Z,9.40
2019-02-20T05:06:52.756Z,9.10
2019-02-20T05:07:52.770Z,9.20
2019-02-20T05:08:52.781Z,8.40
2019-02-20T05:09:52.789Z,9.50
2019-02-20T05:10:52.805Z,9.20
2019-02-20T05:11:52.811Z,8.70
2019-02-20T05:12:52.856Z,9.60
2019-02-20T05:13:52.824Z,8.40
2019-02-20T05:14:52.854Z,8.80
2019-02-20T05:15:52.850Z,8.70
2019-02-20T05:16:52.874Z,9.10
2019-02-20T05:17:52.904Z,9.30
2019-02-20T05:18:53.046Z,9.40
2019-02-20T05:19:52.919Z,8.90
2019-02-20T05:20:52.906Z,9.40
2019-02-20T05:21:52.914Z,8.80
2019-02-20T05:22:52.940Z,8.50
2019-02-20T05:23:52.936Z,8.80
2019-02-20T05:24:52.972Z,9.00
2019-02-20T05:25:52.957Z,8.90
2019-02-20T05:26:52.974Z,8.40
2019-02-20T05:27:53.015Z,8.60
2019-02-20T05:28:52.994Z,8.60
2019-02-20T05:29:52.999Z,9.20
2019-02-20T05:30:53.016Z,9.10
2019-02-20T05:31:53.044Z,9.70
2019-02-20T05:32:53.039Z,8.90
2019-02-20T05:33:53.049Z,9.70
2019-02-20T05:34:53.057Z,9.40
2019-02-20T05:35:53.455Z,9.40
2019-02-20T05:36:53.082Z,9.50
2019-02-20T05:37:53.089Z,9.70
2019-02-20T05:38:53.096Z,9.70
2019-02-20T05:39:53.173Z,9.80
2019-02-20T05:40:53.123Z,9.90
2019-02-20T05:41:53.147Z,9.70
2019-02-20T05:42:53.227Z,9.70
2019-02-20T05:43:53.172Z,9.80
2019-02-20T05:44:53.312Z,9.50
2019-02-20T05:45:53.319Z,10.00
2019-02-20T05:46:53.241Z,9.70
2019-02-20T05:47:53.236Z,8.90
2019-02-20T05:48:53.214Z,9.30
2019-02-20T05:49:53.224Z,9.40
2019-02-20T05:50:53.239Z,9.60
2019-02-20T05:51:53.240Z,9.30
2019-02-20T05:52:53.256Z,9.80
2019-02-20T05:53:53.272Z,9.60
2019-02-20T05:54:53.279Z,10.00
2019-02-20T05:55:53.287Z,9.10
2019-02-20T05:56:53.297Z,9.70
2019-02-20T05:57:53.309Z,9.10
2019-02-20T05:58:53.322Z,9.50
2019-02-20T05:59:53.333Z,9.80
2019-02-20T06:00:53.338Z,9.50
2019-02-20T06:01:53.349Z,10.10
2019-02-20T06:02:53.793Z,9.30
2019-02-20T06:03:53.386Z,9.60
2019-02-20T06:04:53.387Z,10.00
2019-02-20T06:05:53.396Z,10.10
2019-02-20T06:06:53.400Z,10.40
2019-02-20T06:07:53.432Z,10.40
2019-02-20T06:08:53.504Z,10.20
2019-02-20T06:10:53.448Z,10.10
2019-02-20T06:11:53.457Z,10.10
2019-02-20T06:12:53.468Z,9.80
2019-02-20T06:13:54.708Z,9.90
2019-02-20T06:14:53.488Z,10.00
2019-02-20T06:15:53.497Z,9.90
2019-02-20T06:16:53.717Z,10.00
2019-02-20T06:17:53.538Z,9.90
2019-02-20T06:18:53.549Z,10.20
2019-02-20T06:19:53.545Z,10.00
2019-02-20T06:20:53.555Z,10.20
2019-02-20T06:21:53.606Z,10.60
2019-02-20T06:22:53.602Z,10.30
2019-02-20T06:23:53.700Z,10.70
2019-02-20T06:24:53.614Z,10.50
2019-02-20T06:25:53.650Z,10.40
2019-02-20T06:26:53.655Z,10.40
2019-02-20T06:27:53.631Z,10.70
2019-02-20T06:28:53.846Z,11.10
2019-02-20T06:29:53.650Z,10.80
2019-02-20T06:30:53.668Z,10.90
2019-02-20T06:31:53.672Z,10.30
2019-02-20T06:32:53.681Z,10.70
2019-02-20T06:33:53.692Z,10.70
2019-02-20T06:34:53.728Z,10.30
2019-02-20T06:35:53.714Z,10.20
2019-02-20T06:36:53.748Z,10.50
2019-02-20T06:37:53.745Z,11.60
2019-02-20T06:38:53.766Z,10.80
2019-02-20T06:39:53.955Z,10.90
2019-02-20T06:40:53.781Z,11.40
2019-02-20T06:41:53.780Z,10.60
2019-02-20T06:42:53.890Z,10.80
2019-02-20T06:43:53.800Z,11.30
2019-02-20T06:44:53.808Z,10.80
2019-02-20T06:45:53.889Z,10.80
2019-02-20T06:46:53.839Z,10.90
2019-02-20T06:47:53.853Z,11.30
2019-02-20T06:48:53.855Z,11.50
2019-02-20T06:49:53.872Z,10.50
2019-02-20T06:50:53.893Z,11.30
2019-02-20T06:51:53.888Z,11.40
2019-02-20T06:52:53.896Z,10.70
2019-02-20T06:53:54.292Z,10.40
2019-02-20T06:55:54.246Z,11.60
2019-02-20T06:56:54.292Z,11.10
2019-02-20T06:57:53.957Z,11.70
2019-02-20T06:58:53.977Z,11.10
2019-02-20T06:59:54.017Z,11.90
2019-02-20T07:00:53.992Z,11.10
2019-02-20T07:01:53.995Z,11.90
2019-02-20T07:02:54.009Z,12.00
2019-02-20T07:03:54.017Z,12.30
2019-02-20T07:04:54.036Z,11.50
2019-02-20T07:05:54.038Z,11.80
2019-02-20T07:06:55.528Z,11.80
2019-02-20T07:07:54.067Z,11.70
2019-02-20T07:08:54.095Z,11.80
2019-02-20T07:09:54.079Z,12.50
2019-02-20T07:10:54.098Z,11.80
2019-02-20T07:11:54.102Z,12.60
2019-02-20T07:12:54.142Z,12.30
2019-02-20T07:13:54.128Z,11.10
2019-02-20T07:14:54.138Z,12.00
2019-02-20T07:15:54.145Z,11.50
2019-02-20T07:16:54.296Z,12.10
2019-02-20T07:17:54.168Z,11.00
2019-02-20T07:18:54.192Z,12.20
2019-02-20T07:19:54.216Z,11.70
2019-02-20T07:20:54.205Z,12.50
2019-02-20T07:21:54.221Z,12.30
2019-02-20T07:22:54.227Z,12.50
2019-02-20T07:23:54.229Z,11.90
2019-02-20T07:25:02.671Z,11.50
2019-02-20T07:25:54.258Z,13.10
2019-02-20T07:26:54.268Z,13.10
2019-02-20T07:27:54.282Z,12.30
2019-02-20T07:28:54.292Z,11.30
2019-02-20T07:29:54.309Z,11.40
2019-02-20T07:30:54.335Z,11.50
2019-02-20T07:31:54.326Z,12.10
2019-02-20T07:32:54.336Z,11.30
2019-02-20T07:33:54.345Z,11.30
2019-02-20T07:34:54.355Z,11.40
2019-02-20T07:35:54.367Z,11.40
2019-02-20T07:36:54.380Z,11.60
2019-02-20T07:37:54.391Z,12.10
2019-02-20T07:38:54.399Z,11.20
2019-02-20T07:39:54.422Z,10.80
2019-02-20T07:40:54.426Z,12.00
2019-02-20T07:41:54.441Z,12.00
2019-02-20T07:42:54.445Z,11.60
2019-02-20T07:43:54.461Z,11.90
2019-02-20T07:44:54.477Z,11.50
2019-02-20T07:45:54.473Z,11.70
2019-02-20T07:46:54.502Z,12.20
2019-02-20T07:47:54.504Z,11.80
2019-02-20T07:48:54.519Z,12.10
2019-02-20T07:49:54.523Z,12.10
2019-02-20T07:50:54.537Z,11.80
2019-02-20T07:51:54.539Z,11.30
2019-02-20T07:52:54.554Z,11.20
2019-02-20T07:53:54.560Z,12.30
2019-02-20T07:54:54.585Z,11.60
2019-02-20T07:55:54.616Z,11.40
2019-02-20T07:56:54.613Z,11.40
2019-02-20T07:57:54.606Z,11.80
2019-02-20T07:58:54.645Z,12.00
2019-02-20T07:59:54.630Z,11.90
2019-02-20T08:00:54.685Z,11.60
2019-02-20T08:01:54.662Z,11.70
2019-02-20T08:02:54.663Z,11.10
2019-02-20T08:03:54.689Z,11.80
2019-02-20T08:04:55.186Z,11.40
2019-02-20T08:05:54.703Z,11.40
2019-02-20T08:06:54.711Z,11.80
2019-02-20T08:07:54.748Z,12.30
2019-02-20T08:08:54.757Z,11.60
2019-02-20T08:09:54.737Z,12.20
2019-02-20T08:10:54.761Z,11.60
2019-02-20T08:11:54.773Z,11.60
2019-02-20T08:12:54.777Z,12.10
2019-02-20T08:13:54.790Z,10.50
2019-02-20T08:14:54.805Z,10.90
2019-02-20T08:15:54.821Z,11.00
2019-02-20T08:16:54.840Z,12.20
2019-02-20T08:17:54.843Z,11.90
2019-02-20T08:18:54.848Z,11.50
2019-02-20T08:19:54.857Z,14.10
2019-02-20T08:20:54.882Z,11.00
2019-02-20T08:21:54.882Z,10.80
2019-02-20T08:22:54.885Z,11.30
2019-02-20T08:23:54.931Z,11.20
2019-02-20T08:24:54.918Z,11.00
2019-02-20T08:25:55.230Z,10.90
2019-02-20T08:26:54.939Z,11.50
2019-02-20T08:27:54.972Z,11.10
2019-02-20T08:28:54.977Z,10.80
2019-02-20T08:29:54.986Z,10.80
2019-02-20T08:30:54.991Z,11.40
2019-02-20T08:31:54.989Z,11.10
2019-02-20T08:32:55.011Z,11.10
2019-02-20T08:33:55.045Z,11.20
2019-02-20T08:34:55.041Z,11.00
2019-02-20T08:35:55.714Z,10.90
2019-02-20T08:36:55.050Z,11.10
2019-02-20T08:37:55.288Z,10.50
2019-02-20T08:38:55.067Z,11.20
2019-02-20T08:39:55.090Z,11.10
2019-02-20T08:40:55.092Z,11.00
2019-02-20T08:41:55.113Z,11.20
2019-02-20T08:42:55.211Z,11.00
2019-02-20T08:43:55.129Z,11.20
2019-02-20T08:44:55.138Z,10.60
2019-02-20T08:45:55.155Z,10.60
2019-02-20T08:46:55.198Z,10.50
2019-02-20T08:47:55.171Z,11.50
2019-02-20T08:48:55.195Z,11.00
2019-02-20T08:49:55.221Z,10.50
2019-02-20T08:50:55.208Z,11.10
2019-02-20T08:51:55.242Z,10.40
2019-02-20T08:52:55.230Z,11.00
2019-02-20T08:53:55.260Z,10.70
2019-02-20T08:54:55.265Z,10.60
2019-02-20T08:55:55.271Z,10.60
2019-02-20T08:56:55.319Z,10.40
2019-02-20T08:57:55.285Z,11.10
2019-02-20T08:58:55.301Z,10.50
2019-02-20T08:59:55.353Z,11.00
2019-02-20T09:00:55.327Z,10.60
2019-02-20T09:01:57.060Z,10.60
2019-02-20T09:02:55.358Z,11.10
2019-02-20T09:03:55.371Z,10.90
2019-02-20T09:04:55.375Z,10.90
2019-02-20T09:05:55.380Z,10.60
2019-02-20T09:06:55.397Z,10.40
2019-02-20T09:07:55.431Z,10.70
2019-02-20T09:08:55.422Z,10.00
2019-02-20T09:09:55.431Z,10.10
2019-02-20T09:10:55.441Z,10.80
2019-02-20T09:11:55.464Z,9.90
2019-02-20T09:12:55.471Z,10.60
2019-02-20T09:13:55.475Z,10.00
2019-02-20T09:14:55.487Z,9.60
2019-02-20T09:16:55.515Z,9.60
2019-02-20T09:17:55.831Z,10.00
2019-02-20T09:18:55.541Z,9.70
2019-02-20T09:19:55.573Z,9.80
2019-02-20T09:20:55.571Z,10.30
2019-02-20T09:21:55.579Z,10.60
2019-02-20T09:22:55.592Z,10.30
2019-02-20T09:23:55.594Z,10.10
2019-02-20T09:24:55.622Z,8.90
2019-02-20T09:25:55.719Z,9.00
2019-02-20T09:26:55.633Z,9.30
2019-02-20T09:28:56.860Z,9.30
2019-02-20T09:29:55.668Z,8.30
2019-02-20T09:30:55.683Z,8.40
2019-02-20T09:31:55.986Z,8.70
2019-02-20T09:32:55.730Z,8.70
2019-02-20T09:33:56.734Z,8.90
2019-02-20T09:34:55.727Z,8.40
2019-02-20T09:35:55.742Z,8.50
2019-02-20T09:36:56.281Z,9.40
2019-02-20T09:37:55.805Z,9.30
2019-02-20T09:38:55.777Z,8.60
2019-02-20T09:39:55.795Z,8.60
2019-02-20T09:40:55.800Z,8.30
2019-02-20T09:41:55.807Z,8.40
2019-02-20T09:42:55.828Z,8.90
2019-02-20T09:43:55.836Z,8.60
2019-02-20T09:44:55.852Z,9.40
2019-02-20T09:45:55.903Z,8.80
2019-02-20T09:46:55.882Z,8.20
2019-02-20T09:47:55.886Z,8.10
2019-02-20T09:48:55.912Z,8.60
2019-02-20T09:49:55.924Z,8.20
2019-02-20T09:50:55.938Z,9.10
2019-02-20T09:51:55.933Z,8.30
2019-02-20T09:52:55.950Z,8.40
2019-02-20T09:53:55.956Z,8.20
2019-02-20T09:54:55.986Z,8.00
2019-02-20T09:55:55.984Z,8.00
2019-02-20T09:56:56.000Z,8.10
2019-02-20T09:57:56.030Z,8.00
2019-02-20T09:58:56.014Z,7.90
2019-02-20T09:59:56.040Z,8.00
2019-02-20T10:00:56.040Z,8.50
2019-02-20T10:01:56.059Z,7.80
2019-02-20T10:02:56.245Z,8.20
2019-02-20T10:03:56.240Z,8.00
2019-02-20T10:04:56.100Z,8.20
2019-02-20T10:05:56.258Z,7.70
2019-02-20T10:06:56.111Z,8.40
2019-02-20T10:07:56.725Z,7.40
2019-02-20T10:08:56.138Z,7.60
2019-02-20T10:09:56.154Z,7.60
2019-02-20T10:10:56.181Z,7.90
2019-02-20T10:11:57.099Z,8.20
2019-02-20T10:12:56.293Z,8.20
2019-02-20T10:13:56.205Z,7.30
2019-02-20T10:14:56.247Z,7.50
2019-02-20T10:15:56.229Z,7.40
2019-02-20T10:16:56.275Z,7.50
2019-02-20T10:17:56.244Z,7.20
2019-02-20T10:18:56.262Z,6.80
2019-02-20T10:19:56.277Z,7.20
2019-02-20T10:20:56.286Z,7.50
2019-02-20T10:21:56.303Z,7.10
2019-02-20T10:22:56.310Z,7.20
2019-02-20T10:23:56.327Z,7.00
2019-02-20T10:24:56.335Z,7.10
2019-02-20T10:26:01.014Z,6.30
2019-02-20T10:27:00.606Z,6.10
2019-02-20T10:27:56.394Z,6.20
2019-02-20T10:28:56.400Z,6.60
2019-02-20T10:29:56.402Z,6.50
2019-02-20T10:30:56.414Z,6.50
2019-02-20T10:31:56.421Z,6.70
2019-02-20T10:32:56.444Z,6.90
2019-02-20T10:33:56.479Z,7.60
2019-02-20T10:34:56.469Z,7.80
2019-02-20T10:35:56.480Z,7.30
2019-02-20T10:36:56.488Z,6.40
2019-02-20T10:37:56.503Z,6.70
2019-02-20T10:38:56.532Z,6.90
2019-02-20T10:39:56.524Z,7.20
2019-02-20T10:40:56.606Z,6.70
2019-02-20T10:41:56.599Z,6.40
2019-02-20T10:42:56.565Z,7.20
2019-02-20T10:43:56.578Z,6.70
2019-02-20T10:44:56.592Z,6.40
2019-02-20T10:45:56.614Z,7.00
2019-02-20T10:46:56.621Z,6.40
2019-02-20T10:47:56.627Z,6.80
2019-02-20T10:48:56.640Z,6.70
2019-02-20T10:49:56.655Z,6.50
2019-02-20T10:50:56.666Z,6.90
2019-02-20T10:51:56.685Z,7.40
2019-02-20T10:52:56.690Z,6.30
2019-02-20T10:53:56.706Z,6.90
2019-02-20T10:54:57.930Z,7.20
2019-02-20T10:55:56.738Z,8.10
2019-02-20T10:57:56.759Z,7.20
2019-02-20T10:58:56.785Z,6.60
2019-02-20T10:59:56.790Z,7.10
2019-02-20T11:00:56.794Z,6.90
2019-02-20T11:01:56.816Z,7.40
2019-02-20T11:02:56.820Z,7.20
2019-02-20T11:03:56.853Z,6.60
2019-02-20T11:04:56.848Z,7.00
2019-02-20T11:05:56.871Z,6.70
2019-02-20T11:06:56.875Z,7.50
2019-02-20T11:07:56.891Z,7.10
2019-02-20T11:08:56.905Z,7.70
2019-02-20T11:09:57.018Z,6.60
2019-02-20T11:10:56.924Z,6.90
2019-02-20T11:11:56.945Z,7.30
2019-02-20T11:12:56.957Z,6.70
2019-02-20T11:13:56.971Z,7.60
2019-02-20T11:14:57.829Z,7.40
2019-02-20T11:15:58.850Z,7.30
2019-02-20T11:16:57.003Z,6.80
2019-02-20T11:17:57.026Z,6.80
2019-02-20T11:18:57.036Z,7.00
2019-02-20T11:19:57.040Z,7.00
2019-02-20T11:20:57.052Z,6.40
2019-02-20T11:21:57.077Z,6.60
2019-02-20T11:22:57.083Z,6.60
2019-02-20T11:23:57.112Z,6.60
2019-02-20T11:24:57.110Z,6.70
2019-02-20T11:25:57.123Z,6.90
2019-02-20T11:26:57.145Z,6.90
2019-02-20T11:27:57.147Z,6.50
2019-02-20T11:28:57.169Z,7.70
2019-02-20T11:29:57.183Z,7.00
2019-02-20T11:30:57.189Z,6.80
2019-02-20T11:31:57.199Z,6.30
2019-02-20T11:32:57.222Z,7.10
2019-02-20T11:33:57.232Z,6.90
2019-02-20T11:34:57.240Z,7.10
2019-02-20T11:35:57.254Z,6.90
2019-02-20T11:36:57.288Z,7.10
2019-02-20T11:37:57.288Z,7.00
2019-02-20T11:38:57.291Z,6.80
2019-02-20T11:39:57.302Z,7.00
2019-02-20T11:40:57.325Z,6.80
2019-02-20T11:41:57.331Z,7.70
2019-02-20T11:42:57.340Z,7.20
2019-02-20T11:43:57.358Z,7.60
2019-02-20T11:44:57.380Z,7.40
2019-02-20T11:45:57.707Z,7.50
2019-02-20T11:46:57.393Z,7.30
2019-02-20T11:47:57.409Z,7.30
2019-02-20T11:48:57.424Z,7.50
2019-02-20T11:49:57.439Z,8.00
2019-02-20T11:50:57.447Z,7.70
2019-02-20T11:51:57.472Z,7.60
2019-02-20T11:52:57.473Z,7.90
2019-02-20T11:53:57.493Z,7.70
2019-02-20T11:54:57.507Z,7.80
2019-02-20T11:55:57.520Z,8.40
2019-02-20T11:56:57.534Z,8.30
2019-02-20T11:58:00.671Z,8.10
2019-02-20T11:58:57.561Z,8.60
2019-02-20T11:59:57.580Z,8.00
2019-02-20T12:00:57.585Z,8.70
2019-02-20T12:01:57.813Z,8.90
2019-02-20T12:02:57.610Z,8.50
2019-02-20T12:03:57.632Z,8.80
2019-02-20T12:04:57.695Z,9.10
2019-02-20T12:05:57.648Z,8.70
2019-02-20T12:06:57.669Z,8.70
2019-02-20T12:07:57.679Z,9.80
2019-02-20T12:08:57.695Z,10.70
2019-02-20T12:09:57.703Z,9.30
2019-02-20T12:10:57.723Z,9.30
2019-02-20T12:11:57.737Z,9.50
2019-02-20T12:12:57.761Z,10.60
2019-02-20T12:13:57.759Z,9.70
2019-02-20T12:14:57.800Z,10.10
2019-02-20T12:15:57.785Z,9.60
2019-02-20T12:16:57.797Z,11.50
2019-02-20T12:17:57.809Z,10.80
2019-02-20T12:18:57.823Z,10.10
2019-02-20T12:19:57.836Z,10.00
2019-02-20T12:20:58.496Z,11.90
2019-02-20T12:21:58.200Z,10.10
2019-02-20T12:24:59.314Z,10.40
2019-02-20T12:25:57.921Z,10.30
2019-02-20T12:26:57.933Z,9.30
2019-02-20T12:27:57.953Z,10.70
2019-02-20T12:28:57.956Z,10.40
2019-02-20T12:29:57.986Z,10.10
2019-02-20T12:30:58.023Z,9.40
2019-02-20T12:32:58.021Z,10.20
2019-02-20T12:33:58.029Z,9.30
2019-02-20T12:34:58.050Z,9.80
2019-02-20T12:35:58.074Z,10.70
2019-02-20T12:36:58.078Z,9.90
2019-02-20T12:37:58.089Z,10.70
2019-02-20T12:38:58.098Z,10.10
2019-02-20T12:39:58.150Z,10.40
2019-02-20T12:40:58.129Z,10.50
2019-02-20T12:41:58.143Z,10.70
2019-02-20T12:42:58.163Z,10.70
2019-02-20T12:43:58.165Z,10.20
2019-02-20T12:44:58.673Z,10.30
2019-02-20T12:45:58.191Z,10.90
2019-02-20T12:46:58.271Z,9.60
2019-02-20T12:47:58.216Z,10.30
2019-02-20T12:48:58.234Z,10.10
2019-02-20T12:49:58.246Z,11.00
2019-02-20T12:50:58.264Z,10.10
2019-02-20T12:52:00.073Z,9.40
2019-02-20T12:52:58.349Z,9.80
2019-02-20T12:53:58.300Z,8.90
2019-02-20T12:54:58.325Z,9.40
2019-02-20T12:55:58.330Z,10.10
2019-02-20T12:56:58.348Z,10.10
2019-02-20T12:57:58.352Z,9.70
2019-02-20T12:58:58.376Z,9.50
2019-02-20T12:59:58.383Z,9.20
2019-02-20T13:00:59.575Z,9.40
2019-02-20T13:01:58.419Z,9.10
2019-02-20T13:02:58.429Z,9.10
2019-02-20T13:03:58.442Z,9.50
2019-02-20T13:04:58.468Z,9.10
2019-02-20T13:05:58.466Z,9.20
2019-02-20T13:06:59.537Z,9.00
2019-02-20T13:07:58.491Z,9.10
2019-02-20T13:08:58.506Z,8.90
2019-02-20T13:09:58.524Z,9.10
2019-02-20T13:10:58.534Z,9.40
2019-02-20T13:11:58.553Z,10.20
2019-02-20T13:12:58.563Z,9.30
2019-02-20T13:13:58.569Z,9.90
2019-02-20T13:14:58.588Z,8.70
2019-02-20T13:15:58.602Z,9.20
2019-02-20T13:16:58.623Z,9.30
2019-02-20T13:17:58.628Z,9.10
2019-02-20T13:18:58.665Z,9.30